N49SJ EDDG-EDLW
Flight info
| Callsign | N49SJ |
|---|---|
| Flight time | 0h 22m |
| Altitude | 11000 |
| Route | DOMEG2C DOMEG DOMEG2A |
| Aircraft | SF50/L-SDGRWY/L |
Departure
| Time | 2026-04-21 09:43 |
|---|---|
| Airport | Münster Osnabrück Airport (EDDG) |
Arrival
| Time | 2026-04-21 10:05 |
|---|---|
| Airport | Dortmund Airport (EDLW) |
| Time | Latitude | Longitude | Altitude | Speed | Heading |
|---|---|---|---|---|---|
| 2026-04-21 09:28 | 52.13158 | 7.68235 | 162 ft | 0 kts | 90° |
| 2026-04-21 09:36 | 52.13158 | 7.68242 | 162 ft | 3 kts | 90° |
| 2026-04-21 09:36 | 52.13171 | 7.68299 | 163 ft | 1 kts | 53° |
| 2026-04-21 09:36 | 52.13197 | 7.68329 | 163 ft | 10 kts | 99° |
| 2026-04-21 09:37 | 52.13173 | 7.68351 | 163 ft | 2 kts | 282° |
| 2026-04-21 09:37 | 52.13173 | 7.68347 | 163 ft | 6 kts | 2° |
| 2026-04-21 09:37 | 52.13231 | 7.68336 | 163 ft | 1 kts | 341° |
| 2026-04-21 09:37 | 52.13276 | 7.68310 | 163 ft | 14 kts | 344° |
| 2026-04-21 09:38 | 52.13371 | 7.68254 | 163 ft | 14 kts | 333° |
| 2026-04-21 09:38 | 52.13372 | 7.68051 | 161 ft | 27 kts | 252° |
| 2026-04-21 09:38 | 52.13349 | 7.67591 | 157 ft | 50 kts | 265° |
| 2026-04-21 09:38 | 52.13234 | 7.67357 | 154 ft | 22 kts | 233° |
| 2026-04-21 09:39 | 52.13189 | 7.67156 | 156 ft | 16 kts | 247° |
| 2026-04-21 09:39 | 52.13137 | 7.67041 | 158 ft | 9 kts | 196° |
| 2026-04-21 09:39 | 52.13094 | 7.67056 | 158 ft | 4 kts | 159° |
| 2026-04-21 09:39 | 52.13085 | 7.67065 | 158 ft | 0 kts | 140° |
| 2026-04-21 09:41 | 52.13081 | 7.67070 | 158 ft | 4 kts | 140° |
| 2026-04-21 09:41 | 52.13070 | 7.67084 | 158 ft | 0 kts | 160° |
| 2026-04-21 09:41 | 52.13071 | 7.67077 | 158 ft | 0 kts | 326° |
| 2026-04-21 09:41 | 52.13083 | 7.67065 | 158 ft | 7 kts | 341° |
| 2026-04-21 09:42 | 52.13171 | 7.67086 | 157 ft | 22 kts | 56° |
| 2026-04-21 09:42 | 52.13245 | 7.67453 | 154 ft | 57 kts | 77° |
| 2026-04-21 09:42 | 52.13488 | 7.68251 | 286 ft | 91 kts | 57° |
| 2026-04-21 09:42 | 52.13770 | 7.69159 | 737 ft | 92 kts | 64° |
| 2026-04-21 09:43 | 52.14057 | 7.70283 | 944 ft | 120 kts | 67° |
| 2026-04-21 09:43 | 52.14284 | 7.71606 | 1017 ft | 127 kts | 75° |
| 2026-04-21 09:43 | 52.14507 | 7.73105 | 1095 ft | 140 kts | 74° |
| 2026-04-21 09:43 | 52.14787 | 7.74723 | 1303 ft | 152 kts | 72° |
| 2026-04-21 09:44 | 52.15112 | 7.76338 | 1683 ft | 149 kts | 71° |
| 2026-04-21 09:44 | 52.15426 | 7.77935 | 2052 ft | 147 kts | 76° |
| 2026-04-21 09:44 | 52.15445 | 7.79616 | 2347 ft | 150 kts | 95° |
| 2026-04-21 09:44 | 52.15125 | 7.81244 | 2793 ft | 156 kts | 114° |
| 2026-04-21 09:45 | 52.14469 | 7.82658 | 3545 ft | 158 kts | 131° |
| 2026-04-21 09:45 | 52.13530 | 7.83641 | 4146 ft | 167 kts | 153° |
| 2026-04-21 09:45 | 52.12419 | 7.84244 | 4796 ft | 169 kts | 156° |
| 2026-04-21 09:45 | 52.11308 | 7.84885 | 5493 ft | 170 kts | 156° |
| 2026-04-21 09:46 | 52.10164 | 7.85475 | 6115 ft | 175 kts | 165° |
| 2026-04-21 09:46 | 52.08927 | 7.85379 | 6763 ft | 184 kts | 189° |
| 2026-04-21 09:46 | 52.07720 | 7.84592 | 7363 ft | 189 kts | 201° |
| 2026-04-21 09:46 | 52.06511 | 7.83728 | 7959 ft | 191 kts | 198° |
| 2026-04-21 09:47 | 52.05279 | 7.82872 | 8565 ft | 194 kts | 199° |
| 2026-04-21 09:47 | 52.04037 | 7.81993 | 9165 ft | 196 kts | 199° |
| 2026-04-21 09:47 | 52.02778 | 7.81098 | 9764 ft | 198 kts | 198° |
| 2026-04-21 09:47 | 52.01504 | 7.80196 | 10351 ft | 201 kts | 198° |
| 2026-04-21 09:48 | 52.00220 | 7.79285 | 10895 ft | 203 kts | 198° |
| 2026-04-21 09:48 | 51.98910 | 7.78361 | 11292 ft | 214 kts | 198° |
| 2026-04-21 09:48 | 51.97475 | 7.77354 | 11311 ft | 240 kts | 199° |
| 2026-04-21 09:48 | 51.95859 | 7.76203 | 11307 ft | 260 kts | 200° |
| 2026-04-21 09:49 | 51.94183 | 7.75009 | 11306 ft | 272 kts | 200° |
| 2026-04-21 09:49 | 51.92412 | 7.73758 | 11305 ft | 280 kts | 200° |
| 2026-04-21 09:49 | 51.90603 | 7.72484 | 11304 ft | 286 kts | 200° |
| 2026-04-21 09:49 | 51.88758 | 7.71186 | 11305 ft | 291 kts | 200° |
| 2026-04-21 09:50 | 51.86874 | 7.69857 | 11107 ft | 298 kts | 200° |
| 2026-04-21 09:50 | 51.84976 | 7.68521 | 10740 ft | 296 kts | 200° |
| 2026-04-21 09:50 | 51.83090 | 7.67193 | 10352 ft | 294 kts | 200° |
| 2026-04-21 09:50 | 51.81238 | 7.65894 | 9951 ft | 292 kts | 200° |
| 2026-04-21 09:51 | 51.79386 | 7.64595 | 9568 ft | 289 kts | 200° |
| 2026-04-21 09:51 | 51.77552 | 7.63309 | 9177 ft | 286 kts | 200° |
| 2026-04-21 09:51 | 51.75737 | 7.62038 | 8801 ft | 283 kts | 200° |
| 2026-04-21 09:51 | 51.73929 | 7.60774 | 8424 ft | 283 kts | 200° |
| 2026-04-21 09:52 | 51.72124 | 7.59579 | 8044 ft | 280 kts | 195° |
| 2026-04-21 09:52 | 51.70221 | 7.59069 | 7679 ft | 274 kts | 179° |
| 2026-04-21 09:52 | 51.68348 | 7.59304 | 7321 ft | 268 kts | 167° |
| 2026-04-21 09:52 | 51.66512 | 7.59777 | 6971 ft | 266 kts | 168° |
| 2026-04-21 09:53 | 51.64680 | 7.60206 | 6617 ft | 265 kts | 168° |
| 2026-04-21 09:53 | 51.62852 | 7.60631 | 6252 ft | 264 kts | 168° |
| 2026-04-21 09:53 | 51.61059 | 7.61060 | 5906 ft | 262 kts | 168° |
| 2026-04-21 09:53 | 51.59259 | 7.61492 | 5502 ft | 262 kts | 168° |
| 2026-04-21 09:54 | 51.57466 | 7.61917 | 4939 ft | 251 kts | 168° |
| 2026-04-21 09:54 | 51.55798 | 7.62307 | 4583 ft | 232 kts | 168° |
| 2026-04-21 09:54 | 51.54257 | 7.62669 | 4275 ft | 217 kts | 168° |
| 2026-04-21 09:54 | 51.52793 | 7.63017 | 3990 ft | 208 kts | 167° |
| 2026-04-21 09:55 | 51.51450 | 7.63584 | 3961 ft | 198 kts | 144° |
| 2026-04-21 09:55 | 51.50685 | 7.65329 | 3962 ft | 194 kts | 100° |
| 2026-04-21 09:55 | 51.50977 | 7.67364 | 3964 ft | 196 kts | 54° |
| 2026-04-21 09:55 | 51.52123 | 7.68520 | 3971 ft | 200 kts | 20° |
| 2026-04-21 09:56 | 51.53518 | 7.68370 | 3964 ft | 211 kts | 341° |
| 2026-04-21 09:56 | 51.54573 | 7.66761 | 3965 ft | 220 kts | 299° |
| 2026-04-21 09:56 | 51.54934 | 7.64335 | 3972 ft | 223 kts | 283° |
| 2026-04-21 09:56 | 51.55152 | 7.61864 | 3984 ft | 224 kts | 276° |
| 2026-04-21 09:57 | 51.55244 | 7.59386 | 3976 ft | 224 kts | 274° |
| 2026-04-21 09:57 | 51.55336 | 7.56864 | 3815 ft | 225 kts | 274° |
| 2026-04-21 09:57 | 51.55343 | 7.54375 | 3633 ft | 222 kts | 267° |
| 2026-04-21 09:57 | 51.55238 | 7.51921 | 3452 ft | 215 kts | 266° |
| 2026-04-21 09:58 | 51.55126 | 7.49633 | 3245 ft | 196 kts | 263° |
| 2026-04-21 09:58 | 51.54678 | 7.47649 | 3040 ft | 183 kts | 243° |
| 2026-04-21 09:58 | 51.54124 | 7.45850 | 2861 ft | 179 kts | 243° |
| 2026-04-21 09:58 | 51.53581 | 7.44054 | 2672 ft | 179 kts | 243° |
| 2026-04-21 09:59 | 51.53029 | 7.42273 | 2496 ft | 181 kts | 243° |
| 2026-04-21 09:59 | 51.52473 | 7.40542 | 2457 ft | 166 kts | 242° |
| 2026-04-21 09:59 | 51.51669 | 7.39460 | 2450 ft | 147 kts | 185° |
| 2026-04-21 09:59 | 51.50806 | 7.40000 | 2462 ft | 134 kts | 131° |
| 2026-04-21 10:00 | 51.50136 | 7.41027 | 2466 ft | 130 kts | 133° |
| 2026-04-21 10:00 | 51.49472 | 7.41920 | 2462 ft | 117 kts | 131° |
| 2026-04-21 10:00 | 51.48875 | 7.42739 | 2457 ft | 113 kts | 130° |
| 2026-04-21 10:00 | 51.48529 | 7.43834 | 2462 ft | 111 kts | 100° |
| 2026-04-21 10:01 | 51.48310 | 7.45027 | 2470 ft | 112 kts | 103° |
| 2026-04-21 10:01 | 51.48072 | 7.46226 | 2463 ft | 113 kts | 103° |
| 2026-04-21 10:01 | 51.47839 | 7.47409 | 2464 ft | 111 kts | 103° |
| 2026-04-21 10:01 | 51.47619 | 7.48589 | 2447 ft | 108 kts | 88° |
| 2026-04-21 10:02 | 51.48253 | 7.50851 | 1980 ft | 123 kts | 63° |
| 2026-04-21 10:02 | 51.48637 | 7.52041 | 1707 ft | 113 kts | 61° |
| 2026-04-21 10:02 | 51.48998 | 7.53094 | 1532 ft | 102 kts | 59° |
| 2026-04-21 10:03 | 51.49311 | 7.53999 | 1401 ft | 81 kts | 58° |
| 2026-04-21 10:03 | 51.49599 | 7.54811 | 1285 ft | 93 kts | 60° |
| 2026-04-21 10:03 | 51.49898 | 7.55697 | 1169 ft | 88 kts | 62° |
| 2026-04-21 10:03 | 51.50213 | 7.56582 | 1042 ft | 93 kts | 60° |
| 2026-04-21 10:04 | 51.50525 | 7.57512 | 959 ft | 93 kts | 62° |
| 2026-04-21 10:04 | 51.50858 | 7.58441 | 790 ft | 98 kts | 60° |
| 2026-04-21 10:04 | 51.51184 | 7.59381 | 683 ft | 91 kts | 65° |
| 2026-04-21 10:04 | 51.51509 | 7.60276 | 461 ft | 98 kts | 59° |
| 2026-04-21 10:05 | 51.51823 | 7.61178 | 413 ft | 84 kts | 63° |
| 2026-04-21 10:05 | 51.52005 | 7.61715 | 411 ft | 23 kts | 62° |
| 2026-04-21 10:05 | 51.52072 | 7.61907 | 412 ft | 16 kts | 59° |
| 2026-04-21 10:05 | 51.52112 | 7.62014 | 413 ft | 7 kts | 59° |
| 2026-04-21 10:06 | 51.52141 | 7.62098 | 412 ft | 11 kts | 60° |
| 2026-04-21 10:06 | 51.52186 | 7.62230 | 412 ft | 15 kts | 61° |
| 2026-04-21 10:06 | 51.52195 | 7.62254 | 413 ft | 0 kts | 59° |
| 2026-04-21 10:06 | 51.52186 | 7.62309 | 413 ft | 12 kts | 133° |
| 2026-04-21 10:07 | 51.52119 | 7.62373 | 411 ft | 3 kts | 150° |
| 2026-04-21 10:07 | 51.52116 | 7.62376 | 411 ft | 0 kts | 150° |
| 2026-04-21 10:08 | 51.52112 | 7.62379 | 411 ft | 3 kts | 150° |
| 2026-04-21 10:08 | 51.52059 | 7.62392 | 409 ft | 13 kts | 207° |
| 2026-04-21 10:08 | 51.52002 | 7.62247 | 411 ft | 18 kts | 243° |
| 2026-04-21 10:08 | 51.51931 | 7.62042 | 411 ft | 25 kts | 240° |
| 2026-04-21 10:09 | 51.51835 | 7.61775 | 413 ft | 31 kts | 240° |
| 2026-04-21 10:09 | 51.51727 | 7.61468 | 420 ft | 33 kts | 241° |
| 2026-04-21 10:09 | 51.51640 | 7.61219 | 427 ft | 27 kts | 240° |
| 2026-04-21 10:09 | 51.51581 | 7.61063 | 427 ft | 11 kts | 224° |
| 2026-04-21 10:10 | 51.51507 | 7.61050 | 428 ft | 13 kts | 230° |
| 2026-04-21 10:10 | 51.51456 | 7.60899 | 426 ft | 19 kts | 245° |
| 2026-04-21 10:10 | 51.51381 | 7.60683 | 431 ft | 24 kts | 239° |
| 2026-04-21 10:10 | 51.51295 | 7.60444 | 440 ft | 27 kts | 240° |
| 2026-04-21 10:11 | 51.51206 | 7.60192 | 440 ft | 13 kts | 239° |
| 2026-04-21 10:11 | 51.51165 | 7.60239 | 442 ft | 10 kts | 52° |
| 2026-04-21 10:11 | 51.51162 | 7.60331 | 440 ft | 0 kts | 104° |